PRIVATE WETTERSTATION BILLIGHEIM-ALLFELD                       ZURCK
Wetterdaten: Montag, 10.03.2014
Datum Zeit Temp. A. Temp. A. min Temp. A. max Feuchte A. Luftdruck Regen Wind Richtung Richtung Sonnenschein ET Solar Taupunkt Windchill Windben Empfang
10.03.2014 00:00 8,6 C 8,6 C 8,9 C 62 % 1026,9 hPa 0,0 l/m 0,0 km/h (0 Bft) N-NO 22 0 min 0,025 mm 0 W/m 1,7 C 8,6 C 4,8 km/h (1 Bft) 98 %
10.03.2014 00:10 8,0 C 8,0 C 8,6 C 63 % 1026,8 hPa 0,0 l/m 0,0 km/h (0 Bft) NO 45 0 min 0,000 mm 0 W/m 1,4 C 8,0 C 4,8 km/h (1 Bft) 97 %
10.03.2014 00:20 7,6 C 7,6 C 8,0 C 64 % 1026,8 hPa 0,0 l/m 1,6 km/h (1 Bft) NO 45 0 min 0,000 mm 0 W/m 1,2 C 7,6 C 8,0 km/h (2 Bft) 97 %
10.03.2014 00:30 7,6 C 7,6 C 7,7 C 65 % 1026,7 hPa 0,0 l/m 0,0 km/h (0 Bft) NO 45 0 min 0,000 mm 0 W/m 1,5 C 7,6 C 6,4 km/h (2 Bft) 98 %
10.03.2014 00:40 7,1 C 7,1 C 7,6 C 67 % 1026,8 hPa 0,0 l/m 0,0 km/h (0 Bft) N-NO 22 0 min 0,000 mm 0 W/m 1,4 C 7,1 C 6,4 km/h (2 Bft) 98 %
10.03.2014 00:50 6,4 C 6,4 C 7,1 C 69 % 1026,8 hPa 0,0 l/m 0,0 km/h (0 Bft) N-NW 337 0 min 0,000 mm 0 W/m 1,1 C 6,4 C 1,6 km/h (1 Bft) 98 %
10.03.2014 01:00 6,2 C 6,2 C 6,4 C 71 % 1026,7 hPa 0,0 l/m 0,0 km/h (0 Bft) N-NO 22 0 min 0,025 mm 0 W/m 1,3 C 6,2 C 3,2 km/h (1 Bft) 96 %
10.03.2014 01:10 6,4 C 6,2 C 6,4 C 70 % 1026,7 hPa 0,0 l/m 0,0 km/h (0 Bft) NO 45 0 min 0,000 mm 0 W/m 1,3 C 6,4 C 3,2 km/h (1 Bft) 98 %
10.03.2014 01:20 6,3 C 6,3 C 6,5 C 70 % 1026,5 hPa 0,0 l/m 0,0 km/h (0 Bft) NO 45 0 min 0,000 mm 0 W/m 1,2 C 6,3 C 9,7 km/h (2 Bft) 97 %
10.03.2014 01:30 6,1 C 6,1 C 6,3 C 71 % 1026,4 hPa 0,0 l/m 0,0 km/h (0 Bft) NO 45 0 min 0,000 mm 0 W/m 1,2 C 6,1 C 8,0 km/h (2 Bft) 97 %
10.03.2014 01:40 6,1 C 6,1 C 6,1 C 72 % 1026,3 hPa 0,0 l/m 0,0 km/h (0 Bft) N-NO 22 0 min 0,000 mm 0 W/m 1,4 C 6,1 C 9,7 km/h (2 Bft) 98 %
10.03.2014 01:50 6,4 C 6,1 C 6,4 C 72 % 1026,2 hPa 0,0 l/m 1,6 km/h (1 Bft) NO 45 0 min 0,000 mm 0 W/m 1,7 C 6,4 C 8,0 km/h (2 Bft) 100 %
10.03.2014 02:00 6,5 C 6,4 C 6,5 C 71 % 1026,2 hPa 0,0 l/m 0,0 km/h (0 Bft) N-NO 22 0 min 0,025 mm 0 W/m 1,6 C 6,5 C 4,8 km/h (1 Bft) 99 %
10.03.2014 02:10 5,8 C 5,8 C 6,6 C 72 % 1026,1 hPa 0,0 l/m 1,6 km/h (1 Bft) NW 315 0 min 0,000 mm 0 W/m 1,2 C 5,8 C 4,8 km/h (1 Bft) 100 %
10.03.2014 02:20 5,1 C 5,1 C 5,8 C 74 % 1026,1 hPa 0,0 l/m 1,6 km/h (1 Bft) NW 315 0 min 0,000 mm 0 W/m 0,9 C 5,1 C 6,4 km/h (2 Bft) 100 %
10.03.2014 02:30 4,8 C 4,8 C 5,1 C 76 % 1026,1 hPa 0,0 l/m 1,6 km/h (1 Bft) NW 315 0 min 0,000 mm 0 W/m 0,9 C 4,8 C 8,0 km/h (2 Bft) 99 %
10.03.2014 02:40 4,5 C 4,5 C 4,8 C 78 % 1026,0 hPa 0,0 l/m 0,0 km/h (0 Bft) N-NO 22 0 min 0,000 mm 0 W/m 1,0 C 4,5 C 3,2 km/h (1 Bft) 100 %
10.03.2014 02:50 4,4 C 4,3 C 4,4 C 78 % 1025,9 hPa 0,0 l/m 0,0 km/h (0 Bft) N-NO 22 0 min 0,000 mm 0 W/m 0,9 C 4,4 C 1,6 km/h (1 Bft) 100 %
10.03.2014 03:00 4,3 C 4,3 C 4,4 C 79 % 1025,8 hPa 0,0 l/m 0,0 km/h (0 Bft) N-NO 22 0 min 0,025 mm 0 W/m 1,0 C 4,3 C 3,2 km/h (1 Bft) 100 %
10.03.2014 03:10 4,1 C 4,1 C 4,3 C 80 % 1025,8 hPa 0,0 l/m 0,0 km/h (0 Bft) N 360 0 min 0,000 mm 0 W/m 1,0 C 4,1 C 1,6 km/h (1 Bft) 100 %
10.03.2014 03:20 3,9 C 3,9 C 4,1 C 80 % 1025,7 hPa 0,0 l/m 0,0 km/h (0 Bft) N 360 0 min 0,000 mm 0 W/m 0,8 C 3,9 C 1,6 km/h (1 Bft) 100 %
10.03.2014 03:30 4,0 C 3,9 C 4,0 C 80 % 1025,6 hPa 0,0 l/m 0,0 km/h (0 Bft) N-NO 22 0 min 0,000 mm 0 W/m 0,9 C 4,0 C 4,8 km/h (1 Bft) 100 %
10.03.2014 03:40 4,3 C 4,0 C 4,3 C 79 % 1025,5 hPa 0,0 l/m 3,2 km/h (1 Bft) N-NO 22 0 min 0,000 mm 0 W/m 1,0 C 4,3 C 6,4 km/h (2 Bft) 99 %
10.03.2014 03:50 4,3 C 4,3 C 4,5 C 78 % 1025,5 hPa 0,0 l/m 0,0 km/h (0 Bft) N-NO 22 0 min 0,000 mm 0 W/m 0,8 C 4,3 C 1,6 km/h (1 Bft) 100 %
10.03.2014 04:00 3,8 C 3,8 C 4,3 C 79 % 1025,4 hPa 0,0 l/m 0,0 km/h (0 Bft) N 360 0 min 0,000 mm 0 W/m 0,5 C 3,8 C 1,6 km/h (1 Bft) 100 %
10.03.2014 04:10 3,4 C 3,4 C 3,7 C 82 % 1025,4 hPa 0,0 l/m 0,0 km/h (0 Bft) N-NO 22 0 min 0,000 mm 0 W/m 0,6 C 3,4 C 3,2 km/h (1 Bft) 91 %
10.03.2014 04:20 3,6 C 3,4 C 3,6 C 81 % 1025,3 hPa 0,0 l/m 1,6 km/h (1 Bft) NO 45 0 min 0,000 mm 0 W/m 0,7 C 3,6 C 4,8 km/h (1 Bft) 100 %
10.03.2014 04:30 3,7 C 3,6 C 3,7 C 81 % 1025,2 hPa 0,0 l/m 0,0 km/h (0 Bft) N-NO 22 0 min 0,000 mm 0 W/m 0,7 C 3,7 C 4,8 km/h (1 Bft) 100 %
10.03.2014 04:40 3,7 C 3,6 C 3,7 C 81 % 1025,2 hPa 0,0 l/m 0,0 km/h (0 Bft) NO 45 0 min 0,000 mm 0 W/m 0,7 C 3,7 C 4,8 km/h (1 Bft) 100 %
10.03.2014 04:50 3,6 C 3,6 C 3,7 C 81 % 1025,2 hPa 0,0 l/m 0,0 km/h (0 Bft) NO 45 0 min 0,000 mm 0 W/m 0,7 C 3,6 C 4,8 km/h (1 Bft) 100 %
10.03.2014 05:00 3,6 C 3,6 C 3,6 C 81 % 1025,2 hPa 0,0 l/m 0,0 km/h (0 Bft) NO 45 0 min 0,000 mm 0 W/m 0,7 C 3,6 C 3,2 km/h (1 Bft) 100 %
10.03.2014 05:10 3,5 C 3,5 C 3,6 C 81 % 1025,1 hPa 0,0 l/m 0,0 km/h (0 Bft) N-NO 22 0 min 0,000 mm 0 W/m 0,6 C 3,5 C 3,2 km/h (1 Bft) 100 %
10.03.2014 05:20 3,4 C 3,4 C 3,5 C 81 % 1025,1 hPa 0,0 l/m 0,0 km/h (0 Bft) N-NO 22 0 min 0,000 mm 0 W/m 0,5 C 3,4 C 4,8 km/h (1 Bft) 100 %
10.03.2014 05:30 3,5 C 3,4 C 3,5 C 81 % 1025,0 hPa 0,0 l/m 1,6 km/h (1 Bft) NO 45 0 min 0,000 mm 0 W/m 0,6 C 3,5 C 6,4 km/h (2 Bft) 100 %
10.03.2014 05:40 3,6 C 3,5 C 3,6 C 81 % 1025,0 hPa 0,0 l/m 0,0 km/h (0 Bft) N-NO 22 0 min 0,000 mm 0 W/m 0,7 C 3,6 C 3,2 km/h (1 Bft) 100 %
10.03.2014 05:50 3,5 C 3,4 C 3,6 C 81 % 1025,1 hPa 0,0 l/m 0,0 km/h (0 Bft) NO 45 0 min 0,000 mm 0 W/m 0,6 C 3,5 C 4,8 km/h (1 Bft) 100 %
10.03.2014 06:00 3,5 C 3,5 C 3,5 C 81 % 1025,1 hPa 0,0 l/m 0,0 km/h (0 Bft) NO 45 0 min 0,000 mm 0 W/m 0,6 C 3,5 C 4,8 km/h (1 Bft) 100 %
10.03.2014 06:10 3,5 C 3,5 C 3,6 C 80 % 1025,1 hPa 0,0 l/m 0,0 km/h (0 Bft) NO 45 0 min 0,000 mm 0 W/m 0,4 C 3,5 C 4,8 km/h (1 Bft) 100 %
10.03.2014 06:20 3,6 C 3,5 C 3,6 C 80 % 1025,0 hPa 0,0 l/m 0,0 km/h (0 Bft) N 360 0 min 0,000 mm 0 W/m 0,5 C 3,6 C 4,8 km/h (1 Bft) 100 %
10.03.2014 06:30 3,5 C 3,5 C 3,6 C 80 % 1025,0 hPa 0,0 l/m 0,0 km/h (0 Bft) N 360 0 min 0,000 mm 0 W/m 0,4 C 3,5 C 1,6 km/h (1 Bft) 100 %
10.03.2014 06:40 3,4 C 3,4 C 3,5 C 80 % 1025,0 hPa 0,0 l/m 0,0 km/h (0 Bft) NO 45 0 min 0,000 mm 0 W/m 0,3 C 3,4 C 4,8 km/h (1 Bft) 100 %
10.03.2014 06:50 3,4 C 3,4 C 3,4 C 80 % 1025,0 hPa 0,0 l/m 0,0 km/h (0 Bft) N 360 0 min 0,000 mm 5 W/m 0,3 C 3,4 C 1,6 km/h (1 Bft) 100 %
10.03.2014 07:00 3,0 C 3,0 C 3,4 C 81 % 1025,1 hPa 0,0 l/m 0,0 km/h (0 Bft) N-NW 337 0 min 0,000 mm 11 W/m 0,1 C 3,0 C 4,8 km/h (1 Bft) 100 %
10.03.2014 07:10 2,6 C 2,6 C 2,9 C 82 % 1024,9 hPa 0,0 l/m 0,0 km/h (0 Bft) N 360 0 min 0,000 mm 18 W/m -0,2 C 2,6 C 3,2 km/h (1 Bft) 100 %
10.03.2014 07:20 2,3 C 2,3 C 2,6 C 83 % 1024,9 hPa 0,0 l/m 0,0 km/h (0 Bft) N 360 0 min 0,000 mm 23 W/m -0,3 C 2,3 C 6,4 km/h (2 Bft) 100 %
10.03.2014 07:30 2,1 C 2,1 C 2,3 C 84 % 1024,9 hPa 0,0 l/m 0,0 km/h (0 Bft) N 360 0 min 0,000 mm 30 W/m -0,3 C 2,1 C 3,2 km/h (1 Bft) 100 %
10.03.2014 07:40 2,1 C 2,1 C 2,1 C 85 % 1025,0 hPa 0,0 l/m 0,0 km/h (0 Bft) N 360 0 min 0,000 mm 40 W/m -0,2 C 2,1 C 3,2 km/h (1 Bft) 100 %
10.03.2014 07:50 2,2 C 2,1 C 2,2 C 85 % 1025,1 hPa 0,0 l/m 0,0 km/h (0 Bft) N 360 0 min 0,000 mm 46 W/m -0,1 C 2,2 C 3,2 km/h (1 Bft) 100 %
10.03.2014 08:00 2,5 C 2,2 C 2,5 C 85 % 1025,1 hPa 0,0 l/m 0,0 km/h (0 Bft) N 360 0 min 0,025 mm 84 W/m 0,2 C 2,5 C 1,6 km/h (1 Bft) 100 %
10.03.2014 08:10 3,1 C 2,5 C 3,1 C 85 % 1025,2 hPa 0,0 l/m 0,0 km/h (0 Bft) N-NO 22 10 min 0,000 mm 169 W/m 0,8 C 3,1 C 3,2 km/h (1 Bft) 100 %
10.03.2014 08:20 3,9 C 3,2 C 3,9 C 83 % 1025,2 hPa 0,0 l/m 0,0 km/h (0 Bft) N-NW 337 10 min 0,000 mm 195 W/m 1,3 C 3,9 C 3,2 km/h (1 Bft) 100 %
10.03.2014 08:30 4,8 C 3,9 C 4,8 C 81 % 1025,2 hPa 0,0 l/m 0,0 km/h (0 Bft) NW 315 10 min 0,000 mm 220 W/m 1,8 C 4,8 C 4,8 km/h (1 Bft) 100 %
10.03.2014 08:40 5,5 C 4,8 C 5,5 C 79 % 1025,3 hPa 0,0 l/m 1,6 km/h (1 Bft) NW 315 10 min 0,000 mm 244 W/m 2,2 C 5,5 C 4,8 km/h (1 Bft) 100 %
10.03.2014 08:50 6,2 C 5,5 C 6,2 C 77 % 1025,1 hPa 0,0 l/m 0,0 km/h (0 Bft) NW 315 10 min 0,000 mm 269 W/m 2,5 C 6,2 C 1,6 km/h (1 Bft) 100 %
10.03.2014 09:00 7,1 C 6,2 C 7,1 C 74 % 1025,1 hPa 0,0 l/m 0,0 km/h (0 Bft) NW 315 10 min 0,076 mm 295 W/m 2,8 C 7,1 C 1,6 km/h (1 Bft) 100 %
10.03.2014 09:10 7,8 C 7,1 C 7,8 C 72 % 1025,0 hPa 0,0 l/m 0,0 km/h (0 Bft) N 360 10 min 0,000 mm 320 W/m 3,1 C 7,8 C 1,6 km/h (1 Bft) 100 %
10.03.2014 09:20 8,3 C 7,8 C 8,3 C 70 % 1025,0 hPa 0,0 l/m 0,0 km/h (0 Bft) NO 45 10 min 0,000 mm 341 W/m 3,2 C 8,3 C 3,2 km/h (1 Bft) 100 %
10.03.2014 09:30 8,8 C 8,3 C 8,8 C 66 % 1024,9 hPa 0,0 l/m 0,0 km/h (0 Bft) NO 45 10 min 0,000 mm 362 W/m 2,8 C 8,8 C 4,8 km/h (1 Bft) 100 %
10.03.2014 09:40 9,1 C 8,8 C 9,2 C 65 % 1024,7 hPa 0,0 l/m 0,0 km/h (0 Bft) NO 45 10 min 0,000 mm 381 W/m 2,9 C 9,1 C 6,4 km/h (2 Bft) 100 %
10.03.2014 09:50 9,5 C 9,2 C 9,5 C 63 % 1024,4 hPa 0,0 l/m 0,0 km/h (0 Bft) NO 45 10 min 0,000 mm 406 W/m 2,8 C 9,5 C 4,8 km/h (1 Bft) 100 %
10.03.2014 10:00 9,7 C 9,4 C 9,7 C 63 % 1024,4 hPa 0,0 l/m 0,0 km/h (0 Bft) NO 45 10 min 0,152 mm 431 W/m 3,0 C 9,7 C 4,8 km/h (1 Bft) 100 %
10.03.2014 10:10 10,3 C 9,7 C 10,3 C 61 % 1024,3 hPa 0,0 l/m 0,0 km/h (0 Bft) O-SO 112 10 min 0,000 mm 448 W/m 3,1 C 10,3 C 4,8 km/h (1 Bft) 100 %
10.03.2014 10:20 10,8 C 10,3 C 10,8 C 59 % 1024,3 hPa 0,0 l/m 0,0 km/h (0 Bft) NO 45 10 min 0,000 mm 459 W/m 3,1 C 10,8 C 6,4 km/h (2 Bft) 100 %
10.03.2014 10:30 10,8 C 10,8 C 10,9 C 59 % 1024,2 hPa 0,0 l/m 1,6 km/h (1 Bft) NO 45 10 min 0,000 mm 483 W/m 3,1 C 10,8 C 6,4 km/h (2 Bft) 100 %
10.03.2014 10:40 10,8 C 10,7 C 10,8 C 58 % 1024,2 hPa 0,0 l/m 1,6 km/h (1 Bft) NO 45 10 min 0,000 mm 499 W/m 2,9 C 10,8 C 6,4 km/h (2 Bft) 100 %
10.03.2014 10:50 11,0 C 10,8 C 11,0 C 58 % 1024,0 hPa 0,0 l/m 1,6 km/h (1 Bft) NO 45 10 min 0,000 mm 506 W/m 3,1 C 11,0 C 6,4 km/h (2 Bft) 100 %
10.03.2014 11:00 11,4 C 11,0 C 11,4 C 57 % 1023,9 hPa 0,0 l/m 0,0 km/h (0 Bft) NO 45 10 min 0,229 mm 524 W/m 3,2 C 11,4 C 4,8 km/h (1 Bft) 100 %
10.03.2014 11:10 11,7 C 11,4 C 11,7 C 55 % 1023,8 hPa 0,0 l/m 0,0 km/h (0 Bft) NO 45 10 min 0,000 mm 536 W/m 3,0 C 11,7 C 4,8 km/h (1 Bft) 90 %
10.03.2014 11:20 11,8 C 11,7 C 11,8 C 55 % 1023,8 hPa 0,0 l/m 1,6 km/h (1 Bft) NO 45 10 min 0,000 mm 547 W/m 3,1 C 11,8 C 8,0 km/h (2 Bft) 100 %
10.03.2014 11:30 12,1 C 11,8 C 12,1 C 55 % 1023,7 hPa 0,0 l/m 0,0 km/h (0 Bft) NO 45 10 min 0,000 mm 552 W/m 3,3 C 12,1 C 6,4 km/h (2 Bft) 100 %
10.03.2014 11:40 12,3 C 12,1 C 12,3 C 55 % 1023,7 hPa 0,0 l/m 0,0 km/h (0 Bft) NO 45 10 min 0,000 mm 566 W/m 3,5 C 12,3 C 6,4 km/h (2 Bft) 100 %
10.03.2014 11:50 12,7 C 12,3 C 12,7 C 55 % 1023,5 hPa 0,0 l/m 1,6 km/h (1 Bft) O-NO 67 10 min 0,000 mm 571 W/m 3,9 C 12,7 C 6,4 km/h (2 Bft) 100 %
10.03.2014 12:00 13,1 C 12,7 C 13,1 C 52 % 1023,5 hPa 0,0 l/m 1,6 km/h (1 Bft) O 90 10 min 0,279 mm 582 W/m 3,5 C 13,1 C 6,4 km/h (2 Bft) 100 %
10.03.2014 12:10 13,3 C 13,1 C 13,3 C 54 % 1023,4 hPa 0,0 l/m 0,0 km/h (0 Bft) NO 45 10 min 0,000 mm 580 W/m 4,2 C 13,3 C 11,3 km/h (2 Bft) 100 %
10.03.2014 12:20 13,4 C 13,3 C 13,4 C 53 % 1023,2 hPa 0,0 l/m 1,6 km/h (1 Bft) NO 45 10 min 0,000 mm 587 W/m 4,0 C 13,4 C 6,4 km/h (2 Bft) 100 %
10.03.2014 12:30 13,8 C 13,4 C 13,8 C 50 % 1023,1 hPa 0,0 l/m 1,6 km/h (1 Bft) N-NO 22 10 min 0,000 mm 591 W/m 3,6 C 13,8 C 8,0 km/h (2 Bft) 100 %
10.03.2014 12:40 13,9 C 13,8 C 13,9 C 50 % 1023,1 hPa 0,0 l/m 1,6 km/h (1 Bft) NO 45 10 min 0,000 mm 589 W/m 3,7 C 13,9 C 16,1 km/h (3 Bft) 100 %
10.03.2014 12:50 13,9 C 13,9 C 13,9 C 51 % 1022,8 hPa 0,0 l/m 1,6 km/h (1 Bft) NO 45 10 min 0,000 mm 585 W/m 3,9 C 13,9 C 6,4 km/h (2 Bft) 99 %
10.03.2014 13:00 14,0 C 13,9 C 14,0 C 50 % 1022,9 hPa 0,0 l/m 3,2 km/h (1 Bft) NO 45 10 min 0,305 mm 582 W/m 3,7 C 14,0 C 11,3 km/h (2 Bft) 100 %
10.03.2014 13:10 14,1 C 13,9 C 14,1 C 50 % 1022,7 hPa 0,0 l/m 1,6 km/h (1 Bft) NO 45 10 min 0,000 mm 582 W/m 3,8 C 14,1 C 11,3 km/h (2 Bft) 100 %
10.03.2014 13:20 14,4 C 14,1 C 14,4 C 49 % 1022,4 hPa 0,0 l/m 1,6 km/h (1 Bft) NO 45 10 min 0,000 mm 571 W/m 3,8 C 14,4 C 8,0 km/h (2 Bft) 100 %
10.03.2014 13:30 14,5 C 14,4 C 14,5 C 50 % 1022,4 hPa 0,0 l/m 1,6 km/h (1 Bft) NO 45 10 min 0,000 mm 570 W/m 4,2 C 14,5 C 8,0 km/h (2 Bft) 100 %
10.03.2014 13:40 14,9 C 14,5 C 14,9 C 46 % 1022,2 hPa 0,0 l/m 1,6 km/h (1 Bft) NO 45 10 min 0,000 mm 561 W/m 3,4 C 14,9 C 9,7 km/h (2 Bft) 100 %
10.03.2014 13:50 15,1 C 14,9 C 15,1 C 46 % 1022,1 hPa 0,0 l/m 1,6 km/h (1 Bft) NO 45 10 min 0,000 mm 555 W/m 3,6 C 15,1 C 8,0 km/h (2 Bft) 100 %
10.03.2014 14:00 15,4 C 15,1 C 15,4 C 48 % 1022,0 hPa 0,0 l/m 1,6 km/h (1 Bft) NO 45 10 min 0,305 mm 540 W/m 4,4 C 15,4 C 8,0 km/h (2 Bft) 100 %
10.03.2014 14:10 15,4 C 15,3 C 15,4 C 45 % 1021,9 hPa 0,0 l/m 3,2 km/h (1 Bft) NO 45 10 min 0,000 mm 526 W/m 3,5 C 15,4 C 8,0 km/h (2 Bft) 99 %
10.03.2014 14:20 15,6 C 15,4 C 15,6 C 45 % 1021,8 hPa 0,0 l/m 1,6 km/h (1 Bft) NO 45 10 min 0,000 mm 517 W/m 3,7 C 15,6 C 8,0 km/h (2 Bft) 100 %
10.03.2014 14:30 15,8 C 15,6 C 15,8 C 45 % 1021,8 hPa 0,0 l/m 3,2 km/h (1 Bft) NO 45 10 min 0,000 mm 503 W/m 3,9 C 15,8 C 16,1 km/h (3 Bft) 100 %
10.03.2014 14:40 16,2 C 15,8 C 16,2 C 46 % 1021,7 hPa 0,0 l/m 0,0 km/h (0 Bft) N-NO 22 10 min 0,000 mm 482 W/m 4,6 C 16,2 C 4,8 km/h (1 Bft) 100 %
10.03.2014 14:50 16,2 C 16,2 C 16,2 C 46 % 1021,8 hPa 0,0 l/m 1,6 km/h (1 Bft) NO 45 10 min 0,000 mm 469 W/m 4,6 C 16,2 C 9,7 km/h (2 Bft) 99 %
10.03.2014 15:00 16,3 C 16,2 C 16,3 C 44 % 1021,8 hPa 0,0 l/m 0,0 km/h (0 Bft) NO 45 10 min 0,279 mm 446 W/m 4,0 C 16,3 C 6,4 km/h (2 Bft) 100 %
10.03.2014 15:10 16,4 C 16,3 C 16,5 C 42 % 1021,8 hPa 0,0 l/m 1,6 km/h (1 Bft) NO 45 10 min 0,000 mm 427 W/m 3,5 C 16,4 C 14,5 km/h (3 Bft) 100 %
10.03.2014 15:20 16,3 C 16,3 C 16,5 C 41 % 1021,9 hPa 0,0 l/m 1,6 km/h (1 Bft) NO 45 10 min 0,000 mm 408 W/m 3,0 C 16,3 C 11,3 km/h (2 Bft) 99 %
10.03.2014 15:30 16,3 C 16,3 C 16,3 C 42 % 1021,8 hPa 0,0 l/m 1,6 km/h (1 Bft) N-NO 22 10 min 0,000 mm 387 W/m 3,4 C 16,3 C 11,3 km/h (2 Bft) 98 %
10.03.2014 15:40 16,1 C 16,1 C 16,3 C 44 % 1021,8 hPa 0,0 l/m 1,6 km/h (1 Bft) NO 45 10 min 0,000 mm 371 W/m 3,8 C 16,1 C 8,0 km/h (2 Bft) 97 %
10.03.2014 15:50 15,8 C 15,8 C 16,3 C 43 % 1021,8 hPa 0,0 l/m 3,2 km/h (1 Bft) NO 36 0 min 0,000 mm 116 W/m 3,3 C 15,8 C 12,9 km/h (3 Bft) 100 %
10.03.2014 16:00 15,7 C 15,7 C 15,8 C 45 % 1021,8 hPa 0,0 l/m 2,4 km/h (1 Bft) NO 41 0 min 0,155 mm 63 W/m 3,8 C 15,7 C 9,7 km/h (2 Bft) 100 %
10.03.2014 16:10 15,6 C 15,6 C 15,7 C 44 % 1021,8 hPa 0,0 l/m 2,2 km/h (1 Bft) NO 39 0 min 0,000 mm 63 W/m 3,4 C 15,6 C 9,7 km/h (2 Bft) 100 %
10.03.2014 16:20 15,6 C 15,6 C 15,6 C 42 % 1021,9 hPa 0,0 l/m 2,1 km/h (1 Bft) NO 43 0 min 0,000 mm 60 W/m 2,7 C 15,6 C 16,1 km/h (3 Bft) 100 %
10.03.2014 16:30 15,4 C 15,4 C 15,6 C 44 % 1022,0 hPa 0,0 l/m 0,8 km/h (0 Bft) N-NO 18 0 min 0,000 mm 56 W/m 3,2 C 15,4 C 9,7 km/h (2 Bft) 99 %
10.03.2014 16:40 15,3 C 15,3 C 15,4 C 45 % 1022,0 hPa 0,0 l/m 0,8 km/h (0 Bft) NO 40 0 min 0,000 mm 54 W/m 3,4 C 15,3 C 6,4 km/h (2 Bft) 100 %
10.03.2014 16:50 15,1 C 15,1 C 15,3 C 43 % 1021,8 hPa 0,0 l/m 2,2 km/h (1 Bft) O-SO 111 0 min 0,000 mm 49 W/m 2,6 C 15,1 C 11,3 km/h (2 Bft) 100 %
10.03.2014 17:00 15,1 C 15,1 C 15,1 C 42 % 1021,8 hPa 0,0 l/m 1,0 km/h (0 Bft) N-NO 16 0 min 0,051 mm 44 W/m 2,3 C 15,1 C 11,3 km/h (2 Bft) 100 %
10.03.2014 17:10 15,0 C 15,0 C 15,1 C 43 % 1022,0 hPa 0,0 l/m 0,5 km/h (0 Bft) N-NO 17 0 min 0,000 mm 40 W/m 2,5 C 15,0 C 9,7 km/h (2 Bft) 100 %
10.03.2014 17:20 14,8 C 14,8 C 15,0 C 44 % 1022,1 hPa 0,0 l/m 0,6 km/h (0 Bft) N-NO 17 0 min 0,000 mm 37 W/m 2,7 C 14,8 C 9,7 km/h (2 Bft) 100 %
10.03.2014 17:30 14,4 C 14,4 C 14,8 C 45 % 1022,1 hPa 0,0 l/m 0,6 km/h (0 Bft) N-NO 31 0 min 0,000 mm 30 W/m 2,6 C 14,4 C 6,4 km/h (2 Bft) 100 %
10.03.2014 17:40 14,1 C 14,1 C 14,4 C 46 % 1022,2 hPa 0,0 l/m 0,8 km/h (0 Bft) NO 56 0 min 0,000 mm 26 W/m 2,7 C 14,1 C 6,4 km/h (2 Bft) 100 %
10.03.2014 17:50 13,7 C 13,7 C 14,1 C 48 % 1022,1 hPa 0,0 l/m 0,7 km/h (0 Bft) NO 45 0 min 0,000 mm 21 W/m 2,9 C 13,7 C 4,8 km/h (1 Bft) 100 %
10.03.2014 18:00 13,3 C 13,3 C 13,7 C 48 % 1022,1 hPa 0,0 l/m 0,0 km/h (0 Bft) NO 47 0 min 0,025 mm 14 W/m 2,5 C 13,3 C 1,6 km/h (1 Bft) 100 %
10.03.2014 18:10 12,9 C 12,9 C 13,3 C 51 % 1022,1 hPa 0,0 l/m 0,0 km/h (0 Bft) NO 38 0 min 0,000 mm 9 W/m 3,0 C 12,9 C 1,6 km/h (1 Bft) 100 %
10.03.2014 18:20 12,2 C 12,2 C 12,9 C 52 % 1022,2 hPa 0,0 l/m 0,1 km/h (0 Bft) NO 37 0 min 0,000 mm 0 W/m 2,6 C 12,2 C 3,2 km/h (1 Bft) 100 %
10.03.2014 18:30 11,7 C 11,7 C 12,2 C 53 % 1022,4 hPa 0,0 l/m 0,0 km/h (0 Bft) NO 37 0 min 0,000 mm 0 W/m 2,4 C 11,7 C 1,6 km/h (1 Bft) 100 %
10.03.2014 18:40 11,2 C 11,2 C 11,7 C 54 % 1022,5 hPa 0,0 l/m 0,2 km/h (0 Bft) NO 38 0 min 0,000 mm 0 W/m 2,2 C 11,2 C 3,2 km/h (1 Bft) 100 %
10.03.2014 18:50 10,8 C 10,8 C 11,2 C 56 % 1022,4 hPa 0,0 l/m 0,0 km/h (0 Bft) NO 38 0 min 0,000 mm 0 W/m 2,4 C 10,8 C 0,0 km/h (0 Bft) 100 %
10.03.2014 19:00 10,4 C 10,4 C 10,8 C 56 % 1022,4 hPa 0,0 l/m 0,1 km/h (0 Bft) NO 38 0 min 0,000 mm 0 W/m 2,0 C 10,4 C 1,6 km/h (1 Bft) 100 %
10.03.2014 19:10 10,1 C 10,1 C 10,4 C 58 % 1022,4 hPa 0,0 l/m 0,0 km/h (0 Bft) NO 37 0 min 0,000 mm 0 W/m 2,2 C 10,1 C 1,6 km/h (1 Bft) 100 %
10.03.2014 19:20 9,8 C 9,8 C 10,1 C 59 % 1022,4 hPa 0,0 l/m 0,0 km/h (0 Bft) NO 37 0 min 0,000 mm 0 W/m 2,2 C 9,8 C 1,6 km/h (1 Bft) 100 %
10.03.2014 19:30 9,4 C 9,4 C 9,8 C 60 % 1022,5 hPa 0,0 l/m 0,2 km/h (0 Bft) N 11 0 min 0,000 mm 0 W/m 2,0 C 9,4 C 3,2 km/h (1 Bft) 100 %
10.03.2014 19:40 8,9 C 8,9 C 9,4 C 63 % 1022,5 hPa 0,0 l/m 0,0 km/h (0 Bft) N 11 0 min 0,000 mm 0 W/m 2,2 C 8,9 C 1,6 km/h (1 Bft) 100 %
10.03.2014 19:50 8,7 C 8,7 C 8,9 C 63 % 1022,5 hPa 0,0 l/m 0,2 km/h (0 Bft) N 11 0 min 0,000 mm 0 W/m 2,1 C 8,7 C 1,6 km/h (1 Bft) 100 %
10.03.2014 20:00 8,4 C 8,4 C 8,7 C 64 % 1022,4 hPa 0,0 l/m 0,2 km/h (0 Bft) N 11 0 min 0,026 mm 0 W/m 2,0 C 8,4 C 1,6 km/h (1 Bft) 100 %
10.03.2014 20:10 8,1 C 8,1 C 8,4 C 65 % 1022,4 hPa 0,0 l/m 0,0 km/h (0 Bft) N 11 0 min 0,000 mm 0 W/m 1,9 C 8,1 C 1,6 km/h (1 Bft) 100 %
10.03.2014 20:20 7,6 C 7,6 C 8,1 C 68 % 1022,4 hPa 0,0 l/m 0,1 km/h (0 Bft) N 11 0 min 0,000 mm 0 W/m 2,1 C 7,6 C 1,6 km/h (1 Bft) 100 %
10.03.2014 20:30 7,3 C 7,3 C 7,6 C 65 % 1022,5 hPa 0,0 l/m 0,0 km/h (0 Bft) N 11 0 min 0,000 mm 0 W/m 1,2 C 7,3 C 1,6 km/h (1 Bft) 100 %
10.03.2014 20:40 7,3 C 7,2 C 7,3 C 67 % 1022,7 hPa 0,0 l/m 0,2 km/h (0 Bft) N-NO 12 0 min 0,000 mm 0 W/m 1,6 C 7,3 C 3,2 km/h (1 Bft) 100 %
10.03.2014 20:50 7,2 C 7,2 C 7,3 C 68 % 1022,6 hPa 0,0 l/m 0,1 km/h (0 Bft) N-NO 12 0 min 0,000 mm 0 W/m 1,7 C 7,2 C 1,6 km/h (1 Bft) 100 %
10.03.2014 21:00 6,9 C 6,9 C 7,2 C 70 % 1022,7 hPa 0,0 l/m 0,0 km/h (0 Bft) N-NO 12 0 min 0,025 mm 0 W/m 1,8 C 6,9 C 1,6 km/h (1 Bft) 100 %
10.03.2014 21:10 6,7 C 6,7 C 6,9 C 70 % 1022,9 hPa 0,0 l/m 0,0 km/h (0 Bft) N-NO 22 0 min 0,000 mm 0 W/m 1,6 C 6,7 C 1,6 km/h (1 Bft) 88 %
10.03.2014 21:20 6,4 C 6,4 C 6,7 C 69 % 1023,0 hPa 0,0 l/m 0,0 km/h (0 Bft) N-NO 22 0 min 0,000 mm 0 W/m 1,1 C 6,4 C 1,6 km/h (1 Bft) 98 %
10.03.2014 21:30 6,3 C 6,3 C 6,4 C 72 % 1023,1 hPa 0,0 l/m 0,0 km/h (0 Bft) N 360 0 min 0,000 mm 0 W/m 1,6 C 6,3 C 1,6 km/h (1 Bft) 97 %
10.03.2014 21:40 5,9 C 5,9 C 6,3 C 72 % 1023,3 hPa 0,0 l/m 0,0 km/h (0 Bft) N 360 0 min 0,000 mm 0 W/m 1,2 C 5,9 C 1,6 km/h (1 Bft) 98 %
10.03.2014 21:50 5,8 C 5,8 C 5,9 C 67 % 1023,4 hPa 0,0 l/m 0,0 km/h (0 Bft) N 360 0 min 0,000 mm 0 W/m 0,2 C 5,8 C 1,6 km/h (1 Bft) 97 %
10.03.2014 22:00 6,6 C 5,8 C 6,6 C 63 % 1023,4 hPa 0,0 l/m 0,0 km/h (0 Bft) N 0 0 min 0,025 mm 0 W/m 0,1 C 6,6 C 0,0 km/h (0 Bft) 98 %
10.03.2014 22:10 6,9 C 6,6 C 6,9 C 61 % 1023,7 hPa 0,0 l/m 0,0 km/h (0 Bft) N-NO 22 0 min 0,000 mm 0 W/m -0,1 C 6,9 C 3,2 km/h (1 Bft) 98 %
10.03.2014 22:20 7,3 C 7,0 C 7,4 C 64 % 1023,8 hPa 0,0 l/m 0,0 km/h (0 Bft) NO 45 0 min 0,000 mm 0 W/m 1,0 C 7,3 C 4,8 km/h (1 Bft) 97 %
10.03.2014 22:30 6,1 C 6,1 C 7,3 C 70 % 1023,9 hPa 0,0 l/m 1,6 km/h (1 Bft) N-NO 22 0 min 0,000 mm 0 W/m 1,0 C 6,1 C 4,8 km/h (1 Bft) 98 %
10.03.2014 22:40 5,8 C 5,6 C 6,1 C 66 % 1023,8 hPa 0,0 l/m 0,0 km/h (0 Bft) NO 45 0 min 0,000 mm 0 W/m -0,0 C 5,8 C 6,4 km/h (2 Bft) 97 %
10.03.2014 22:50 7,6 C 5,8 C 7,6 C 59 % 1023,7 hPa 0,0 l/m 0,0 km/h (0 Bft) O-NO 67 0 min 0,000 mm 0 W/m 0,1 C 7,6 C 9,7 km/h (2 Bft) 100 %
10.03.2014 23:00 8,8 C 7,6 C 8,8 C 55 % 1023,7 hPa 0,0 l/m 0,0 km/h (0 Bft) O-NO 67 0 min 0,025 mm 0 W/m 0,3 C 8,8 C 6,4 km/h (2 Bft) 100 %
10.03.2014 23:10 9,3 C 8,8 C 9,3 C 53 % 1023,6 hPa 0,0 l/m 0,0 km/h (0 Bft) O-NO 67 0 min 0,000 mm 0 W/m 0,2 C 9,3 C 4,8 km/h (1 Bft) 98 %
10.03.2014 23:20 9,3 C 9,3 C 9,3 C 55 % 1023,5 hPa 0,0 l/m 0,0 km/h (0 Bft) NO 45 0 min 0,000 mm 0 W/m 0,7 C 9,3 C 4,8 km/h (1 Bft) 99 %
10.03.2014 23:30 7,7 C 7,7 C 9,3 C 61 % 1023,5 hPa 0,0 l/m 0,0 km/h (0 Bft) N-NO 22 0 min 0,000 mm 0 W/m 0,7 C 7,7 C 4,8 km/h (1 Bft) 90 %
10.03.2014 23:40 6,1 C 6,1 C 7,7 C 67 % 1023,4 hPa 0,0 l/m 0,0 km/h (0 Bft) N 360 0 min 0,000 mm 0 W/m 0,4 C 6,1 C 4,8 km/h (1 Bft) 100 %
10.03.2014 23:50 5,8 C 5,8 C 6,1 C 68 % 1023,3 hPa 0,0 l/m 1,6 km/h (1 Bft) N-NO 22 0 min 0,000 mm 0 W/m 0,4 C 5,8 C 6,4 km/h (2 Bft) 100 %
_ Min-Zeit 07:30 07:30 07:40 15:20 14:40 - 00:00 - - - - - 07:30 07:30 18:50 21:10
Minimum _ 2,1 C 2,1 C 2,1 C 41 % 1021,7 hPa - 0,0 km/h (0 Bft) - - - - - -0,3 C 2,1 C 0,0 km/h (0 Bft) 88 %
_ Max-Zeit 15:10 15:10 15:10 07:40 00:00 00:00 03:40 - - 08:10 13:00 12:30 14:40 15:10 12:40 01:50
Maximum _ 16,5 C 16,3 C 16,5 C 85 % 1026,9 hPa 0,0 l/m 3,2 km/h
N-NO (1 Bft)
- - 10 min 0,305 mm 591 W/m 4,6 C 16,4 C 16,1 km/h
N (3 Bft)
100 %
Durchschnitt _ 8,8 C 8,7 C 9,0 C 64 % 1023,9 hPa #0,0 l/m 0,6 km/h (0 Bft) NO - #7:40 h #2,082 mm 323 W/m 1,9 C 8,8 C 5,4 km/h (1 Bft) 99 %
PRIVATE WETTERSTATION BILLIGHEIM-ALLFELD - www.neckar-odenwald-wetter.de - Holger Sonntag